createdAt,value
2023-05-03T00:04:42.393Z,101232.47
2023-05-03T00:09:44.003Z,101238.28
2023-05-03T00:14:46.034Z,101230.75
2023-05-03T00:19:48.286Z,101239.34
2023-05-03T00:24:51.159Z,101235.19
2023-05-03T00:29:53.044Z,101234.81
2023-05-03T00:34:56.083Z,101231.50
2023-05-03T00:39:57.671Z,101228.88
2023-05-03T00:44:59.232Z,101226.84
2023-05-03T00:50:01.523Z,101226.50
2023-05-03T00:55:03.917Z,101218.78
2023-05-03T01:00:09.397Z,101236.44
2023-05-03T01:05:11.128Z,101227.94
2023-05-03T01:10:30.713Z,101234.41
2023-05-03T01:15:51.436Z,101228.09
2023-05-03T01:20:53.677Z,101222.13
2023-05-03T01:25:55.236Z,101224.53
2023-05-03T01:30:58.160Z,101224.50
2023-05-03T01:36:12.251Z,101225.53
2023-05-03T01:41:14.242Z,101230.22
2023-05-03T01:46:16.104Z,101231.00
2023-05-03T01:51:19.520Z,101231.00
2023-05-03T01:56:21.602Z,101229.34
2023-05-03T02:01:23.293Z,101227.94
2023-05-03T02:06:26.135Z,101228.63
2023-05-03T02:11:27.902Z,101235.63
2023-05-03T02:16:29.783Z,101232.94
2023-05-03T02:21:33.799Z,101229.50
2023-05-03T02:26:35.665Z,101229.13
2023-05-03T02:31:38.135Z,101227.41
2023-05-03T02:36:39.761Z,101226.69
2023-05-03T02:41:41.371Z,101230.16
2023-05-03T02:46:43.953Z,101237.81
2023-05-03T02:51:45.900Z,101235.78
2023-05-03T02:56:47.533Z,101233.16
2023-05-03T03:01:49.764Z,101249.59
2023-05-03T03:06:53.574Z,101259.91
2023-05-03T03:11:55.465Z,101256.78
2023-05-03T03:16:58.055Z,101253.63
2023-05-03T03:21:59.684Z,101270.28
2023-05-03T03:27:01.303Z,101273.88
2023-05-03T03:32:02.985Z,101269.94
2023-05-03T03:37:05.458Z,101267.06
2023-05-03T03:42:08.934Z,101275.41
2023-05-03T03:47:10.974Z,101271.41
2023-05-03T03:52:12.876Z,101282.78
2023-05-03T03:57:14.868Z,101284.06
2023-05-03T04:02:17.399Z,101295.56
2023-05-03T04:07:19.155Z,101303.81
2023-05-03T04:12:21.318Z,101297.50
2023-05-03T04:17:23.162Z,101314.09
2023-05-03T04:22:24.921Z,101326.25
2023-05-03T04:27:28.037Z,101325.16
2023-05-03T04:32:37.268Z,101337.25
2023-05-03T04:37:44.021Z,101347.84
2023-05-03T04:42:49.435Z,101345.47
2023-05-03T04:47:51.959Z,101353.38
2023-05-03T04:52:53.643Z,101359.69
2023-05-03T04:57:57.439Z,101354.56
2023-05-03T05:02:59.225Z,101361.97
2023-05-03T05:08:03.760Z,101359.84
2023-05-03T05:13:11.555Z,101372.78
2023-05-03T05:18:13.504Z,101370.81
2023-05-03T05:23:16.217Z,101375.34
2023-05-03T05:28:21.723Z,101390.31
2023-05-03T05:33:24.549Z,101391.59
2023-05-03T05:38:27.283Z,101393.97
2023-05-03T05:43:32.329Z,101397.28
2023-05-03T05:48:34.105Z,101408.47
2023-05-03T05:53:37.164Z,101404.78
2023-05-03T05:58:39.030Z,101406.81
2023-05-03T06:03:41.411Z,101401.38
2023-05-03T06:08:44.145Z,101411.53
2023-05-03T06:13:45.751Z,101413.06
2023-05-03T06:18:50.694Z,101412.78
2023-05-03T06:23:52.585Z,101417.25
2023-05-03T06:28:54.431Z,101413.03
2023-05-03T06:33:56.524Z,101413.63
2023-05-03T06:38:58.214Z,101418.81
2023-05-03T06:43:59.864Z,101416.47
2023-05-03T06:49:01.804Z,101421.53
2023-05-03T06:54:09.947Z,101426.81
2023-05-03T06:59:11.501Z,101418.06
2023-05-03T07:04:13.178Z,101422.41
2023-05-03T07:09:14.787Z,101423.94
2023-05-03T07:14:16.627Z,101418.59
2023-05-03T07:19:18.282Z,101418.84
2023-05-03T07:24:20.430Z,101424.63
2023-05-03T07:29:21.992Z,101410.41
2023-05-03T07:34:23.725Z,101408.66
2023-05-03T07:39:25.285Z,101404.59
2023-05-03T07:44:26.867Z,101399.91
2023-05-03T07:49:28.621Z,101406.91
2023-05-03T07:54:31.348Z,101403.78
2023-05-03T07:59:32.899Z,101403.38
2023-05-03T08:04:34.633Z,101408.00
2023-05-03T08:09:36.646Z,101403.84
2023-05-03T08:14:39.010Z,101397.81
2023-05-03T08:19:41.544Z,101396.16
2023-05-03T08:24:43.444Z,101398.59
2023-05-03T08:29:45.055Z,101387.41
2023-05-03T08:34:47.003Z,101384.38
2023-05-03T08:39:48.887Z,101380.88
2023-05-03T08:44:50.937Z,101391.94
2023-05-03T08:49:53.230Z,101394.75
2023-05-03T08:54:54.795Z,101398.44
2023-05-03T09:00:01.756Z,101399.56
2023-05-03T09:05:05.612Z,101400.44
2023-05-03T09:10:22.869Z,101400.84
2023-05-03T09:15:24.529Z,101398.97
2023-05-03T09:20:36.847Z,101395.78
2023-05-03T09:25:46.253Z,101399.84
2023-05-03T09:30:48.825Z,101398.47
2023-05-03T09:35:59.472Z,101399.69
2023-05-03T09:41:10.284Z,101390.72
2023-05-03T09:46:13.043Z,101386.34
2023-05-03T09:51:14.720Z,101394.13
2023-05-03T09:56:16.539Z,101376.91
2023-05-03T10:01:19.009Z,101382.00
2023-05-03T10:06:21.668Z,101375.22
2023-05-03T10:11:24.525Z,101365.25
2023-05-03T10:16:39.380Z,101376.78
2023-05-03T10:22:06.089Z,101359.78
2023-05-03T10:27:08.553Z,101360.94
2023-05-03T10:32:34.196Z,101354.84
2023-05-03T10:37:36.302Z,101357.25
2023-05-03T10:42:38.664Z,101346.66
2023-05-03T10:47:40.830Z,101348.28
2023-05-03T10:52:42.458Z,101351.09
2023-05-03T10:57:46.767Z,101352.66
2023-05-03T11:03:12.458Z,101349.56
2023-05-03T11:08:14.982Z,101338.38
2023-05-03T11:13:16.698Z,101338.41
2023-05-03T11:18:18.325Z,101342.94
2023-05-03T11:23:25.494Z,101337.22
2023-05-03T11:28:27.083Z,101337.22
2023-05-03T11:33:30.944Z,101335.00
2023-05-03T11:38:38.339Z,101338.06
2023-05-03T11:43:47.628Z,101334.00
2023-05-03T11:48:49.492Z,101327.63
2023-05-03T11:53:51.825Z,101326.22
2023-05-03T11:58:57.117Z,101323.41
2023-05-03T12:04:03.927Z,101335.16
2023-05-03T12:09:14.295Z,101333.03
2023-05-03T12:14:16.308Z,101328.78
2023-05-03T12:19:31.315Z,101318.75
2023-05-03T12:24:34.746Z,101312.22
2023-05-03T12:29:36.984Z,101320.00
2023-05-03T12:34:41.454Z,101305.31
2023-05-03T12:39:46.164Z,101313.19
2023-05-03T12:44:53.732Z,101309.94
2023-05-03T12:49:59.405Z,101303.16
2023-05-03T12:55:03.851Z,101288.53
2023-05-03T13:00:13.701Z,101279.88
2023-05-03T13:05:27.586Z,101273.28
2023-05-03T13:10:36.218Z,101272.03
2023-05-03T13:15:38.052Z,101272.69
2023-05-03T13:20:40.544Z,101265.41
2023-05-03T13:25:44.192Z,101267.75
2023-05-03T13:30:45.923Z,101260.94
2023-05-03T13:35:48.356Z,101269.38
2023-05-03T13:40:50.001Z,101254.75
2023-05-03T13:45:52.772Z,101255.69
2023-05-03T13:50:54.432Z,101243.94
2023-05-03T13:55:56.447Z,101233.69
2023-05-03T14:00:58.178Z,101239.94
2023-05-03T14:05:59.773Z,101230.56
2023-05-03T14:11:02.842Z,101232.53
2023-05-03T14:16:06.566Z,101230.50
2023-05-03T14:21:08.217Z,101228.81
2023-05-03T14:26:09.831Z,101226.47
2023-05-03T14:31:11.954Z,101223.72
2023-05-03T14:36:13.623Z,101225.09
2023-05-03T14:41:15.589Z,101210.72
2023-05-03T14:46:17.213Z,101215.41
2023-05-03T14:51:18.992Z,101214.75
2023-05-03T14:56:21.151Z,101208.09
2023-05-03T15:01:22.785Z,101211.50
2023-05-03T15:06:30.602Z,101217.69
2023-05-03T15:11:32.176Z,101213.16
2023-05-03T15:16:35.362Z,101218.13
2023-05-03T15:21:46.877Z,101213.34
2023-05-03T15:26:48.531Z,101219.66
2023-05-03T15:31:50.237Z,101202.72
2023-05-03T15:36:51.822Z,101202.59
2023-05-03T15:41:53.363Z,101202.13
2023-05-03T15:46:54.992Z,101192.75
2023-05-03T15:51:56.655Z,101202.13
2023-05-03T15:56:59.125Z,101185.88
2023-05-03T16:02:01.092Z,101184.59
2023-05-03T16:07:03.617Z,101184.59
2023-05-03T16:12:05.331Z,101184.97
2023-05-03T16:17:07.153Z,101181.97
2023-05-03T16:22:08.712Z,101176.19
2023-05-03T16:27:10.433Z,101165.88
2023-05-03T16:32:12.267Z,101159.03
2023-05-03T16:37:14.077Z,101152.81
2023-05-03T16:42:15.674Z,101150.34
2023-05-03T16:47:17.544Z,101151.03
2023-05-03T16:52:19.361Z,101144.97
2023-05-03T16:57:20.944Z,101146.28
2023-05-03T17:02:23.149Z,101135.97
2023-05-03T17:07:24.893Z,101144.88
2023-05-03T17:12:26.798Z,101141.97
2023-05-03T17:17:28.381Z,101133.81
2023-05-03T17:22:29.950Z,101143.72
2023-05-03T17:27:31.709Z,101141.78
2023-05-03T17:32:33.342Z,101139.19
2023-05-03T17:37:34.965Z,101142.09
2023-05-03T17:42:36.622Z,101146.63
2023-05-03T17:47:38.393Z,101146.38
2023-05-03T17:52:40.026Z,101139.63
2023-05-03T17:57:42.052Z,101144.00
2023-05-03T18:02:44.845Z,101143.31
2023-05-03T18:07:46.647Z,101146.22
2023-05-03T18:12:48.271Z,101154.38
2023-05-03T18:17:49.967Z,101155.97
2023-05-03T18:22:51.608Z,101171.06
2023-05-03T18:27:53.284Z,101167.56
2023-05-03T18:32:56.116Z,101170.97
2023-05-03T18:37:57.712Z,101170.75
2023-05-03T18:42:59.416Z,101171.03
2023-05-03T18:48:01.061Z,101175.28
2023-05-03T18:53:03.873Z,101177.31
2023-05-03T18:58:05.820Z,101176.50
2023-05-03T19:03:08.894Z,101178.91
2023-05-03T19:08:10.545Z,101195.78
2023-05-03T19:13:12.389Z,101193.78
2023-05-03T19:18:16.030Z,101193.56
2023-05-03T19:23:18.289Z,101193.97
2023-05-03T19:28:19.831Z,101193.16
2023-05-03T19:33:21.610Z,101187.59
2023-05-03T19:38:23.263Z,101183.94
2023-05-03T19:43:25.525Z,101181.13
2023-05-03T19:48:27.134Z,101181.97
2023-05-03T19:53:28.870Z,101193.00
2023-05-03T19:58:31.962Z,101190.75
2023-05-03T20:03:33.663Z,101189.34
2023-05-03T20:08:36.131Z,101196.09
2023-05-03T20:13:37.785Z,101200.63
2023-05-03T20:18:39.599Z,101202.03
2023-05-03T20:23:41.214Z,101192.16
2023-05-03T20:28:42.769Z,101188.47
2023-05-03T20:33:44.415Z,101194.38
2023-05-03T20:38:46.471Z,101185.00
2023-05-03T20:43:48.044Z,101185.88
2023-05-03T20:48:49.700Z,101185.88
2023-05-03T20:53:51.326Z,101184.59
2023-05-03T20:58:52.914Z,101185.59
2023-05-03T21:03:55.319Z,101191.28
2023-05-03T21:08:57.001Z,101195.44
2023-05-03T21:14:01.545Z,101183.13
2023-05-03T21:19:04.243Z,101183.22
2023-05-03T21:24:06.264Z,101174.97
2023-05-03T21:29:07.972Z,101172.84
2023-05-03T21:34:09.531Z,101172.47
2023-05-03T21:39:12.040Z,101172.13
2023-05-03T21:44:13.685Z,101183.72
2023-05-03T21:49:15.620Z,101180.84
2023-05-03T21:54:19.108Z,101181.13
2023-05-03T21:59:21.176Z,101180.94
2023-05-03T22:04:22.792Z,101181.47
2023-05-03T22:09:24.744Z,101184.19
2023-05-03T22:14:26.512Z,101180.81
2023-05-03T22:19:28.599Z,101185.69
2023-05-03T22:24:30.495Z,101180.34
2023-05-03T22:29:32.047Z,101184.00
2023-05-03T22:34:33.613Z,101182.09
2023-05-03T22:39:35.193Z,101184.50
2023-05-03T22:44:37.163Z,101177.13
2023-05-03T22:49:38.731Z,101176.88
2023-05-03T22:54:40.431Z,101180.63
2023-05-03T22:59:44.968Z,101175.44
2023-05-03T23:04:46.510Z,101167.19
2023-05-03T23:09:48.716Z,101165.38
2023-05-03T23:14:50.466Z,101161.97
2023-05-03T23:19:52.062Z,101171.38
2023-05-03T23:24:53.621Z,101167.38
2023-05-03T23:29:55.313Z,101163.47
2023-05-03T23:34:57.816Z,101162.28
2023-05-03T23:39:59.370Z,101157.28
2023-05-03T23:45:00.948Z,101159.34
2023-05-03T23:50:02.686Z,101151.59
2023-05-03T23:55:08.272Z,101147.59
